createdAt,value
2019-01-26T00:03:28.794Z,4.43
2019-01-26T00:06:17.667Z,4.41
2019-01-26T00:09:27.371Z,4.38
2019-01-26T00:12:16.182Z,4.28
2019-01-26T00:15:25.890Z,4.18
2019-01-26T00:18:14.768Z,4.30
2019-01-26T00:21:03.564Z,4.30
2019-01-26T00:23:52.378Z,4.29
2019-01-26T00:26:41.161Z,2.60
2019-01-26T00:29:29.973Z,4.21
2019-01-26T00:32:18.758Z,3.17
2019-01-26T00:35:07.760Z,4.21
2019-01-26T00:37:56.586Z,4.45
2019-01-26T00:40:45.453Z,2.95
2019-01-26T00:43:34.323Z,4.31
2019-01-26T00:46:28.362Z,2.76
2019-01-26T00:49:13.660Z,2.76
2019-01-26T00:52:02.466Z,4.36
2019-01-26T00:54:51.252Z,4.50
2019-01-26T00:57:33.275Z,4.26
2019-01-26T01:03:50.956Z,3.22
2019-01-26T01:09:47.680Z,2.88
2019-01-26T01:12:36.502Z,4.66
2019-01-26T01:15:25.391Z,3.20
2019-01-26T01:18:14.183Z,4.54
2019-01-26T01:21:22.082Z,4.68
2019-01-26T01:24:10.899Z,4.73
2019-01-26T01:26:59.701Z,4.60
2019-01-26T01:29:48.484Z,4.66
2019-01-26T01:32:37.275Z,4.57
2019-01-26T01:35:26.078Z,4.76
2019-01-26T01:38:14.875Z,4.42
2019-01-26T01:41:03.686Z,3.24
2019-01-26T01:43:52.499Z,4.69
2019-01-26T01:46:42.994Z,3.14
2019-01-26T01:49:31.792Z,4.12
2019-01-26T01:52:20.607Z,4.59
2019-01-26T01:55:30.305Z,3.34
2019-01-26T01:58:11.591Z,4.64
2019-01-26T02:01:00.381Z,4.31
2019-01-26T02:03:49.186Z,4.84
2019-01-26T02:06:38.002Z,4.87
2019-01-26T02:09:26.815Z,4.78
2019-01-26T02:12:15.604Z,4.88
2019-01-26T02:15:25.329Z,4.73
2019-01-26T02:18:14.388Z,3.05
2019-01-26T02:21:03.201Z,3.85
2019-01-26T02:23:51.996Z,4.81
2019-01-26T02:26:40.803Z,4.59
2019-01-26T02:29:29.590Z,4.82
2019-01-26T02:32:18.407Z,4.80
2019-01-26T02:35:07.571Z,4.74
2019-01-26T02:37:56.369Z,4.34
2019-01-26T02:40:45.159Z,4.90
2019-01-26T02:43:33.970Z,5.08
2019-01-26T02:46:22.761Z,5.18
2019-01-26T02:49:11.582Z,5.22
2019-01-26T02:52:00.371Z,5.06
2019-01-26T02:54:49.190Z,4.98
2019-01-26T02:57:30.449Z,5.22
2019-01-26T03:00:40.148Z,5.13
2019-01-26T03:03:28.959Z,5.16
2019-01-26T03:06:17.765Z,5.19
2019-01-26T03:09:08.589Z,3.91
2019-01-26T03:11:57.405Z,5.38
2019-01-26T03:14:46.209Z,5.24
2019-01-26T03:17:35.034Z,5.28
2019-01-26T03:20:23.816Z,5.26
2019-01-26T03:23:12.631Z,5.35
2019-01-26T03:26:01.413Z,5.37
2019-01-26T03:28:50.285Z,5.51
2019-01-26T03:31:39.077Z,5.62
2019-01-26T03:34:27.890Z,5.33
2019-01-26T03:37:16.682Z,5.28
2019-01-26T03:40:26.399Z,5.57
2019-01-26T03:43:15.254Z,4.34
2019-01-26T03:49:18.866Z,5.28
2019-01-26T03:52:07.648Z,5.22
2019-01-26T03:54:56.467Z,5.35
2019-01-26T03:57:45.256Z,5.52
2019-01-26T04:00:27.112Z,5.74
2019-01-26T04:03:15.970Z,5.54
2019-01-26T04:06:05.231Z,4.84
2019-01-26T04:08:54.019Z,4.00
2019-01-26T04:11:42.823Z,4.29
2019-01-26T04:14:31.633Z,5.72
2019-01-26T04:17:21.863Z,5.85
2019-01-26T04:20:31.927Z,5.79
2019-01-26T04:23:20.721Z,5.96
2019-01-26T04:26:09.598Z,5.41
2019-01-26T04:28:58.390Z,5.49
2019-01-26T04:31:47.204Z,5.52
2019-01-26T04:34:35.987Z,5.71
2019-01-26T04:37:25.094Z,5.77
2019-01-26T04:40:33.223Z,5.23
2019-01-26T04:43:22.008Z,5.88
2019-01-26T04:46:10.821Z,5.52
2019-01-26T04:48:59.608Z,6.03
2019-01-26T04:51:48.408Z,4.68
2019-01-26T04:54:37.191Z,6.14
2019-01-26T04:57:25.993Z,6.32
2019-01-26T05:00:27.267Z,6.42
2019-01-26T05:03:16.138Z,6.49
2019-01-26T05:06:04.995Z,6.62
2019-01-26T05:08:53.803Z,6.54
2019-01-26T05:11:42.596Z,6.55
2019-01-26T05:14:31.485Z,6.52
2019-01-26T05:17:20.290Z,6.67
2019-01-26T05:20:29.979Z,6.68
2019-01-26T05:23:18.786Z,6.84
2019-01-26T05:26:07.588Z,6.59
2019-01-26T05:28:56.395Z,6.48
2019-01-26T05:34:52.937Z,6.52
2019-01-26T05:37:41.786Z,6.50
2019-01-26T05:40:30.594Z,6.51
2019-01-26T05:43:19.383Z,6.10
2019-01-26T05:46:08.183Z,6.49
2019-01-26T05:48:56.969Z,6.39
2019-01-26T05:51:45.773Z,6.47
2019-01-26T05:54:34.560Z,6.67
2019-01-26T05:57:23.367Z,6.69
2019-01-26T06:03:40.895Z,6.78
2019-01-26T06:06:29.679Z,5.37
2019-01-26T06:09:18.486Z,6.50
2019-01-26T06:12:07.293Z,6.41
2019-01-26T06:14:56.115Z,6.58
2019-01-26T06:17:44.891Z,6.62
2019-01-26T06:20:33.680Z,5.72
2019-01-26T06:23:22.489Z,6.49
2019-01-26T06:26:11.272Z,6.69
2019-01-26T06:29:00.082Z,6.74
2019-01-26T06:31:49.143Z,6.88
2019-01-26T06:34:37.951Z,6.81
2019-01-26T06:37:26.764Z,5.62
2019-01-26T06:40:36.451Z,6.91
2019-01-26T06:43:25.250Z,6.19
2019-01-26T06:46:14.329Z,7.03
2019-01-26T06:49:03.130Z,7.03
2019-01-26T06:55:01.306Z,6.92
2019-01-26T06:57:50.162Z,7.14
2019-01-26T07:00:32.155Z,7.09
2019-01-26T07:03:20.951Z,7.02
2019-01-26T07:06:28.805Z,7.20
2019-01-26T07:09:17.600Z,7.23
2019-01-26T07:12:06.409Z,7.16
2019-01-26T07:14:55.264Z,6.97
2019-01-26T07:17:44.081Z,7.08
2019-01-26T07:20:32.892Z,7.34
2019-01-26T07:23:21.707Z,7.45
2019-01-26T07:29:18.256Z,7.37
2019-01-26T07:32:07.120Z,7.18
2019-01-26T07:34:55.943Z,7.28
2019-01-26T07:37:44.812Z,7.19
2019-01-26T07:40:33.621Z,7.32
2019-01-26T07:43:22.434Z,7.15
2019-01-26T07:46:11.224Z,7.34
2019-01-26T07:49:00.034Z,7.28
2019-01-26T07:51:48.844Z,7.46
2019-01-26T07:54:37.639Z,7.36
2019-01-26T07:57:26.459Z,7.55
2019-01-26T08:03:28.338Z,7.41
2019-01-26T08:06:17.158Z,7.50
2019-01-26T08:09:26.858Z,7.31
2019-01-26T08:12:15.674Z,7.62
2019-01-26T08:15:25.391Z,6.66
2019-01-26T08:18:14.185Z,7.49
2019-01-26T08:21:03.048Z,7.71
2019-01-26T08:23:51.802Z,7.41
2019-01-26T08:26:40.618Z,7.08
2019-01-26T08:29:29.663Z,7.61
2019-01-26T08:32:18.496Z,6.02
2019-01-26T08:35:07.957Z,6.00
2019-01-26T08:37:56.765Z,7.73
2019-01-26T08:40:45.601Z,7.77
2019-01-26T08:43:34.381Z,7.69
2019-01-26T08:46:23.185Z,7.91
2019-01-26T08:49:11.976Z,7.56
2019-01-26T08:52:00.789Z,7.77
2019-01-26T08:54:49.593Z,6.72
2019-01-26T08:57:38.451Z,7.74
2019-01-26T09:00:48.172Z,7.67
2019-01-26T09:03:49.136Z,7.99
2019-01-26T09:06:37.937Z,7.80
2019-01-26T09:09:26.729Z,7.78
2019-01-26T09:12:15.551Z,7.78
2019-01-26T09:15:25.246Z,7.78
2019-01-26T09:18:14.059Z,7.04
2019-01-26T09:21:02.849Z,8.09
2019-01-26T09:23:51.757Z,8.05
2019-01-26T09:26:40.527Z,8.37
2019-01-26T09:29:29.330Z,8.30
2019-01-26T09:32:18.119Z,8.28
2019-01-26T09:38:22.111Z,8.14
2019-01-26T09:41:10.897Z,6.88
2019-01-26T09:43:59.702Z,8.41
2019-01-26T09:46:48.491Z,8.58
2019-01-26T09:49:37.300Z,8.65
2019-01-26T09:52:26.154Z,8.49
2019-01-26T09:55:34.286Z,6.91
2019-01-26T09:58:23.143Z,8.57
2019-01-26T10:01:05.324Z,8.73
2019-01-26T10:03:54.253Z,8.53
2019-01-26T10:09:38.004Z,8.71
2019-01-26T10:12:26.926Z,8.16
2019-01-26T10:15:36.626Z,8.68
2019-01-26T10:18:25.437Z,7.23
2019-01-26T10:21:14.221Z,8.62
2019-01-26T10:24:03.037Z,8.75
2019-01-26T10:26:51.824Z,8.64
2019-01-26T10:29:40.633Z,8.95
2019-01-26T10:32:29.425Z,8.75
2019-01-26T10:35:18.232Z,7.99
2019-01-26T10:38:07.031Z,9.11
2019-01-26T10:40:55.598Z,9.19
2019-01-26T10:44:03.432Z,7.70
2019-01-26T10:49:59.981Z,9.34
2019-01-26T10:52:48.764Z,9.44
2019-01-26T10:55:37.569Z,9.55
2019-01-26T10:58:26.360Z,9.36
2019-01-26T11:01:08.334Z,8.40
2019-01-26T11:03:57.135Z,10.07
2019-01-26T11:06:45.940Z,10.07
2019-01-26T11:09:34.727Z,9.79
2019-01-26T11:12:23.527Z,8.57
2019-01-26T11:18:41.527Z,10.13
2019-01-26T11:21:30.341Z,10.05
2019-01-26T11:24:19.137Z,10.10
2019-01-26T11:27:08.021Z,10.18
2019-01-26T11:29:56.816Z,10.11
2019-01-26T11:32:45.627Z,10.10
2019-01-26T11:35:34.475Z,9.88
2019-01-26T11:38:23.294Z,9.99
2019-01-26T11:41:12.161Z,9.78
2019-01-26T11:44:00.957Z,9.49
2019-01-26T11:46:50.016Z,9.78
2019-01-26T11:52:34.396Z,9.87
2019-01-26T11:58:22.238Z,10.12
2019-01-26T12:01:08.406Z,10.29
2019-01-26T12:04:16.249Z,10.30
2019-01-26T12:13:10.413Z,10.07
2019-01-26T12:18:53.434Z,9.83
2019-01-26T12:21:42.239Z,9.61
2019-01-26T12:24:31.032Z,9.81
2019-01-26T12:27:19.839Z,9.52
2019-01-26T12:30:29.551Z,9.66
2019-01-26T12:33:18.366Z,9.48
2019-01-26T12:36:07.156Z,9.50
2019-01-26T12:38:55.963Z,9.40
2019-01-26T12:41:44.781Z,9.33
2019-01-26T12:44:33.593Z,9.58
2019-01-26T12:47:22.389Z,9.33
2019-01-26T12:50:32.106Z,9.54
2019-01-26T12:53:20.897Z,9.63
2019-01-26T12:56:28.730Z,9.63
2019-01-26T12:59:17.514Z,9.58
2019-01-26T13:02:06.764Z,9.66
2019-01-26T13:04:55.551Z,8.53
2019-01-26T13:08:03.520Z,9.68
2019-01-26T13:11:13.265Z,8.31
2019-01-26T13:14:21.108Z,9.85
2019-01-26T13:17:10.380Z,9.76
2019-01-26T13:23:07.362Z,9.97
2019-01-26T13:25:56.154Z,9.85
2019-01-26T13:28:44.962Z,8.17
2019-01-26T13:31:33.759Z,9.87
2019-01-26T13:34:22.574Z,8.95
2019-01-26T13:37:11.373Z,9.89
2019-01-26T13:40:00.239Z,9.57
2019-01-26T13:42:49.055Z,9.79
2019-01-26T13:45:37.866Z,9.85
2019-01-26T13:48:26.661Z,9.80
2019-01-26T13:51:15.470Z,9.86
2019-01-26T13:57:34.019Z,9.76
2019-01-26T14:00:17.485Z,8.31
2019-01-26T14:03:25.407Z,9.44
2019-01-26T14:06:14.275Z,10.14
2019-01-26T14:11:59.007Z,10.13
2019-01-26T14:14:47.806Z,10.17
2019-01-26T14:17:36.621Z,9.99
2019-01-26T14:23:54.463Z,9.65
2019-01-26T14:26:49.521Z,10.19
2019-01-26T14:29:33.798Z,8.81
2019-01-26T14:32:22.585Z,10.31
2019-01-26T14:35:11.472Z,10.24
2019-01-26T14:38:00.265Z,10.09
2019-01-26T14:40:49.074Z,9.96
2019-01-26T14:43:37.931Z,9.82
2019-01-26T14:46:26.735Z,9.90
2019-01-26T14:49:15.546Z,10.07
2019-01-26T14:52:04.421Z,9.88
2019-01-26T14:54:53.208Z,9.31
2019-01-26T14:57:42.024Z,10.15
2019-01-26T15:00:51.713Z,9.97
2019-01-26T15:03:33.356Z,9.88
2019-01-26T15:06:22.161Z,9.80
2019-01-26T15:09:10.955Z,9.79
2019-01-26T15:11:59.795Z,9.55
2019-01-26T15:14:48.609Z,9.53
2019-01-26T15:17:37.414Z,9.40
2019-01-26T15:20:45.546Z,9.35
2019-01-26T15:23:34.360Z,8.22
2019-01-26T15:26:23.168Z,8.86
2019-01-26T15:29:11.975Z,9.89
2019-01-26T15:32:00.774Z,10.00
2019-01-26T15:34:49.589Z,10.06
2019-01-26T15:37:38.408Z,9.30
2019-01-26T15:40:27.209Z,10.07
2019-01-26T15:43:16.024Z,10.08
2019-01-26T15:46:04.830Z,10.11
2019-01-26T15:48:53.641Z,8.61
2019-01-26T15:51:42.436Z,10.07
2019-01-26T15:54:31.260Z,10.02
2019-01-26T15:57:20.071Z,10.05
2019-01-26T16:00:29.812Z,9.33
2019-01-26T16:03:11.790Z,9.81
2019-01-26T16:06:00.583Z,9.75
2019-01-26T16:08:49.395Z,9.70
2019-01-26T16:11:38.187Z,9.72
2019-01-26T16:14:26.998Z,9.62
2019-01-26T16:17:15.799Z,9.75
2019-01-26T16:20:25.534Z,8.45
2019-01-26T16:23:14.330Z,9.82
2019-01-26T16:26:03.131Z,9.76
2019-01-26T16:28:51.924Z,9.75
2019-01-26T16:31:40.730Z,9.85
2019-01-26T16:34:29.537Z,9.71
2019-01-26T16:37:18.341Z,9.25
2019-01-26T16:40:28.065Z,9.73
2019-01-26T16:43:17.149Z,9.24
2019-01-26T16:46:05.958Z,8.41
2019-01-26T16:49:13.769Z,9.65
2019-01-26T16:52:02.575Z,9.57
2019-01-26T16:54:51.644Z,9.43
2019-01-26T16:57:40.521Z,8.90
2019-01-26T17:00:23.992Z,9.43
2019-01-26T17:03:12.795Z,9.32
2019-01-26T17:06:01.600Z,9.34
2019-01-26T17:08:50.399Z,8.75
2019-01-26T17:11:39.220Z,8.93
2019-01-26T17:14:28.016Z,8.73
2019-01-26T17:17:16.828Z,8.75
2019-01-26T17:20:26.535Z,8.13
2019-01-26T17:23:15.416Z,8.64
2019-01-26T17:26:04.384Z,8.63
2019-01-26T17:28:53.216Z,8.73
2019-01-26T17:31:42.024Z,8.55
2019-01-26T17:34:30.983Z,8.66
2019-01-26T17:37:21.370Z,8.63
2019-01-26T17:40:31.107Z,8.61
2019-01-26T17:43:19.915Z,8.70
2019-01-26T17:46:08.730Z,8.66
2019-01-26T17:48:57.536Z,7.13
2019-01-26T17:51:46.342Z,8.70
2019-01-26T17:54:54.183Z,8.55
2019-01-26T17:57:43.043Z,8.57
2019-01-26T18:03:30.457Z,7.29
2019-01-26T18:06:19.251Z,7.57
2019-01-26T18:09:08.235Z,8.65
2019-01-26T18:11:57.025Z,8.73
2019-01-26T18:14:45.899Z,8.68
2019-01-26T18:17:34.730Z,8.73
2019-01-26T18:20:48.927Z,8.79
2019-01-26T18:23:52.402Z,8.80
2019-01-26T18:26:41.188Z,8.81
2019-01-26T18:29:29.999Z,8.67
2019-01-26T18:32:18.795Z,8.76
2019-01-26T18:35:28.503Z,8.68
2019-01-26T18:38:17.311Z,8.75
2019-01-26T18:41:06.112Z,8.77
2019-01-26T18:43:54.915Z,8.82
2019-01-26T18:46:43.711Z,8.81
2019-01-26T18:49:32.525Z,8.67
2019-01-26T18:52:21.307Z,8.81
2019-01-26T18:55:10.273Z,8.67
2019-01-26T18:58:18.156Z,6.85
2019-01-26T19:00:59.954Z,7.37
2019-01-26T19:04:09.731Z,8.76
2019-01-26T19:06:58.553Z,8.55
2019-01-26T19:10:06.645Z,8.58
2019-01-26T19:12:55.447Z,8.65
2019-01-26T19:15:44.300Z,8.61
2019-01-26T19:18:33.090Z,8.70
2019-01-26T19:24:35.840Z,8.52
2019-01-26T19:27:43.834Z,8.58
2019-01-26T19:30:32.890Z,8.55
2019-01-26T19:33:21.689Z,8.40
2019-01-26T19:36:10.539Z,8.37
2019-01-26T19:39:18.531Z,8.46
2019-01-26T19:42:07.925Z,8.18
2019-01-26T19:51:27.260Z,8.40
2019-01-26T19:54:35.643Z,7.19
2019-01-26T19:57:25.052Z,7.92
2019-01-26T20:00:08.033Z,8.44
2019-01-26T20:16:19.710Z,6.84
2019-01-26T20:22:44.395Z,8.09
2019-01-26T20:29:23.045Z,8.03
2019-01-26T20:32:12.385Z,7.80
2019-01-26T20:35:02.087Z,7.98
2019-01-26T20:38:26.726Z,8.08
2019-01-26T20:45:06.469Z,7.90
2019-01-26T20:51:15.110Z,7.93
2019-01-26T20:54:25.891Z,8.15
2019-01-26T21:00:12.664Z,6.92
2019-01-26T21:03:35.868Z,7.83
2019-01-26T21:16:16.751Z,7.89
2019-01-26T21:23:08.474Z,7.96
2019-01-26T21:29:45.939Z,7.91
2019-01-26T21:36:12.550Z,7.63
2019-01-26T21:52:16.300Z,8.15
2019-01-26T21:55:26.064Z,6.60
2019-01-26T21:58:14.887Z,8.15
2019-01-26T22:00:56.489Z,8.20
2019-01-26T22:03:45.487Z,8.19
2019-01-26T22:09:42.462Z,7.96
2019-01-26T22:12:31.291Z,7.98
2019-01-26T22:15:41.025Z,7.92
2019-01-26T22:18:29.821Z,7.86
2019-01-26T22:21:18.631Z,7.96
2019-01-26T22:24:07.495Z,7.34
2019-01-26T22:26:56.303Z,7.95
2019-01-26T22:29:45.096Z,7.99
2019-01-26T22:32:33.915Z,6.25
2019-01-26T22:35:22.786Z,8.09
2019-01-26T22:38:11.596Z,6.61
2019-01-26T22:41:00.381Z,7.72
2019-01-26T22:43:49.188Z,8.24
2019-01-26T22:46:37.979Z,7.47
2019-01-26T22:49:26.791Z,8.11
2019-01-26T22:52:08.507Z,8.43
2019-01-26T22:54:57.323Z,8.40
2019-01-26T22:57:46.110Z,8.34
2019-01-26T23:04:30.435Z,8.19
2019-01-26T23:07:38.560Z,8.09
2019-01-26T23:10:48.261Z,8.20
2019-01-26T23:17:30.952Z,7.96
2019-01-26T23:20:40.670Z,7.92
2019-01-26T23:23:50.410Z,7.93
2019-01-26T23:27:02.798Z,7.87
2019-01-26T23:30:30.315Z,7.69
2019-01-26T23:33:19.083Z,6.21
2019-01-26T23:39:02.883Z,7.82
2019-01-26T23:41:51.683Z,7.74
2019-01-26T23:44:40.496Z,7.72
2019-01-26T23:47:29.290Z,7.75
2019-01-26T23:50:18.095Z,7.73
2019-01-26T23:52:59.676Z,6.84
2019-01-26T23:55:48.487Z,7.77
2019-01-26T23:58:37.294Z,7.72
